createdAt,value
2023-05-10T00:00:26.999Z,100178.16
2023-05-10T00:03:00.322Z,100186.94
2023-05-10T00:05:30.745Z,100178.72
2023-05-10T00:08:01.327Z,100184.31
2023-05-10T00:10:33.672Z,100183.47
2023-05-10T00:13:04.059Z,100182.75
2023-05-10T00:15:36.672Z,100170.44
2023-05-10T00:18:14.956Z,100167.53
2023-05-10T00:20:48.809Z,100173.97
2023-05-10T00:23:20.556Z,100167.38
2023-05-10T00:25:50.969Z,100168.38
2023-05-10T00:28:21.311Z,100155.34
2023-05-10T00:30:52.958Z,100147.66
2023-05-10T00:33:25.917Z,100154.91
2023-05-10T00:35:56.128Z,100155.31
2023-05-10T00:38:26.627Z,100152.28
2023-05-10T00:40:57.082Z,100159.91
2023-05-10T00:43:29.949Z,100160.41
2023-05-10T00:46:02.850Z,100160.53
2023-05-10T00:48:36.081Z,100156.34
2023-05-10T00:51:10.262Z,100164.69
2023-05-10T00:53:40.634Z,100159.50
2023-05-10T00:56:18.650Z,100165.19
2023-05-10T00:58:51.732Z,100154.72
2023-05-10T01:01:25.985Z,100159.56
2023-05-10T01:04:05.298Z,100159.69
2023-05-10T01:06:37.132Z,100150.03
2023-05-10T01:09:08.723Z,100156.81
2023-05-10T01:11:40.025Z,100159.53
2023-05-10T01:14:13.462Z,100161.47
2023-05-10T01:16:51.325Z,100151.53
2023-05-10T01:19:32.095Z,100154.16
2023-05-10T01:22:09.213Z,100149.69
2023-05-10T01:25:09.805Z,100149.72
2023-05-10T01:27:57.975Z,100149.69
2023-05-10T01:31:02.644Z,100146.44
2023-05-10T01:33:43.151Z,100151.41
2023-05-10T01:36:27.297Z,100142.16
2023-05-10T01:39:02.507Z,100146.03
2023-05-10T01:41:44.805Z,100139.06
2023-05-10T01:44:22.076Z,100147.69
2023-05-10T01:47:04.261Z,100135.44
2023-05-10T01:49:43.384Z,100135.84
2023-05-10T01:52:17.185Z,100139.91
2023-05-10T01:54:57.350Z,100146.59
2023-05-10T01:57:34.471Z,100147.56
2023-05-10T02:00:06.574Z,100142.53
2023-05-10T02:02:41.247Z,100149.75
2023-05-10T02:05:16.912Z,100138.63
2023-05-10T02:07:48.807Z,100129.25
2023-05-10T02:10:21.054Z,100137.53
2023-05-10T02:13:02.566Z,100139.91
2023-05-10T02:15:33.958Z,100131.59
2023-05-10T02:18:08.956Z,100134.81
2023-05-10T02:20:44.685Z,100130.25
2023-05-10T02:23:15.825Z,100130.38
2023-05-10T02:25:51.520Z,100127.84
2023-05-10T02:28:26.092Z,100127.00
2023-05-10T02:30:58.264Z,100121.84
2023-05-10T02:33:29.671Z,100118.63
2023-05-10T02:36:06.725Z,100124.44
2023-05-10T02:38:40.439Z,100124.31
2023-05-10T02:41:13.795Z,100129.84
2023-05-10T02:43:45.509Z,100129.38
2023-05-10T02:46:15.845Z,100125.78
2023-05-10T02:48:52.043Z,100126.75
2023-05-10T02:51:29.470Z,100118.44
2023-05-10T02:54:01.438Z,100125.91
2023-05-10T02:56:37.068Z,100125.31
2023-05-10T02:59:07.607Z,100121.69
2023-05-10T03:01:37.972Z,100119.81
2023-05-10T03:04:08.500Z,100123.69
2023-05-10T03:06:41.538Z,100124.75
2023-05-10T03:09:13.840Z,100134.88
2023-05-10T03:12:00.770Z,100131.75
2023-05-10T03:14:44.284Z,100134.38
2023-05-10T03:17:19.530Z,100130.09
2023-05-10T03:19:56.863Z,100125.38
2023-05-10T03:22:36.364Z,100124.66
2023-05-10T03:25:10.185Z,100121.94
2023-05-10T03:27:43.137Z,100131.91
2023-05-10T03:30:18.249Z,100115.44
2023-05-10T03:32:51.832Z,100122.50
2023-05-10T03:35:24.740Z,100128.72
2023-05-10T03:37:59.733Z,100121.78
2023-05-10T03:40:33.235Z,100122.72
2023-05-10T03:43:05.913Z,100119.38
2023-05-10T03:45:39.099Z,100117.44
2023-05-10T03:48:10.190Z,100125.97
2023-05-10T03:50:40.529Z,100125.00
2023-05-10T03:53:18.388Z,100130.16
2023-05-10T03:55:51.768Z,100130.28
2023-05-10T03:58:23.088Z,100129.25
2023-05-10T04:00:58.146Z,100127.88
2023-05-10T04:03:29.025Z,100134.06
2023-05-10T04:06:03.720Z,100135.38
2023-05-10T04:08:39.983Z,100136.16
2023-05-10T04:11:11.414Z,100145.47
2023-05-10T04:13:41.948Z,100143.56
2023-05-10T04:16:13.728Z,100138.75
2023-05-10T04:18:49.871Z,100147.53
2023-05-10T04:21:23.631Z,100154.84
2023-05-10T04:24:03.679Z,100152.19
2023-05-10T04:26:43.299Z,100155.13
2023-05-10T04:29:14.733Z,100157.22
2023-05-10T04:31:46.289Z,100160.44
2023-05-10T04:34:19.539Z,100153.16
2023-05-10T04:36:49.987Z,100152.69
2023-05-10T04:39:26.137Z,100155.38
2023-05-10T04:41:56.410Z,100147.59
2023-05-10T04:44:27.926Z,100147.69
2023-05-10T04:46:58.564Z,100159.03
2023-05-10T04:49:31.172Z,100151.28
2023-05-10T04:52:03.621Z,100150.84
2023-05-10T04:54:36.506Z,100149.81
2023-05-10T04:57:09.864Z,100150.53
2023-05-10T04:59:43.779Z,100148.91
2023-05-10T05:02:14.620Z,100141.56
2023-05-10T05:04:48.775Z,100143.22
2023-05-10T05:07:21.356Z,100145.44
2023-05-10T05:09:54.287Z,100141.94
2023-05-10T05:12:24.489Z,100149.50
2023-05-10T05:15:00.023Z,100140.34
2023-05-10T05:17:31.764Z,100147.41
2023-05-10T05:20:03.450Z,100144.31
2023-05-10T05:22:34.376Z,100148.97
2023-05-10T05:25:08.238Z,100146.84
2023-05-10T05:27:38.794Z,100149.19
2023-05-10T05:30:12.440Z,100144.59
2023-05-10T05:32:42.811Z,100144.31
2023-05-10T05:35:16.566Z,100148.22
2023-05-10T05:37:47.375Z,100144.47
2023-05-10T05:40:21.573Z,100153.13
2023-05-10T05:42:54.331Z,100144.91
2023-05-10T05:45:25.688Z,100151.19
2023-05-10T05:47:56.024Z,100158.88
2023-05-10T05:50:26.410Z,100146.00
2023-05-10T05:52:57.815Z,100153.72
2023-05-10T05:55:32.713Z,100164.94
2023-05-10T05:58:02.988Z,100151.97
2023-05-10T06:00:33.322Z,100153.19
2023-05-10T06:03:08.363Z,100146.66
2023-05-10T06:05:39.311Z,100148.13
2023-05-10T06:08:10.165Z,100142.81
2023-05-10T06:10:45.738Z,100146.72
2023-05-10T06:13:17.105Z,100154.22
2023-05-10T06:15:48.776Z,100154.19
2023-05-10T06:18:19.347Z,100151.75
2023-05-10T06:20:56.243Z,100166.94
2023-05-10T06:23:28.573Z,100164.25
2023-05-10T06:26:09.553Z,100170.34
2023-05-10T06:28:40.324Z,100164.28
2023-05-10T06:31:12.744Z,100173.00
2023-05-10T06:33:43.388Z,100169.13
2023-05-10T06:36:16.179Z,100173.13
2023-05-10T06:38:46.506Z,100173.16
2023-05-10T06:41:23.968Z,100169.63
2023-05-10T06:43:55.068Z,100165.59
2023-05-10T06:46:28.354Z,100169.81
2023-05-10T06:48:59.677Z,100164.22
2023-05-10T06:51:30.168Z,100172.00
2023-05-10T06:54:20.350Z,100170.16
2023-05-10T06:56:55.372Z,100177.06
2023-05-10T06:59:26.040Z,100174.31
2023-05-10T07:01:59.130Z,100182.34
2023-05-10T07:04:29.460Z,100181.00
2023-05-10T07:06:59.781Z,100171.13
2023-05-10T07:09:32.327Z,100174.19
2023-05-10T07:12:11.129Z,100171.34
2023-05-10T07:14:42.434Z,100174.78
2023-05-10T07:17:15.414Z,100177.91
2023-05-10T07:19:45.659Z,100176.91
2023-05-10T07:22:18.440Z,100169.78
2023-05-10T07:24:50.309Z,100167.00
2023-05-10T07:27:23.317Z,100168.53
2023-05-10T07:29:53.652Z,100165.13
2023-05-10T07:32:24.380Z,100156.00
2023-05-10T07:34:57.609Z,100159.28
2023-05-10T07:37:28.291Z,100159.56
2023-05-10T07:39:59.044Z,100145.78
2023-05-10T07:42:31.848Z,100155.16
2023-05-10T07:45:02.527Z,100162.06
2023-05-10T07:47:32.839Z,100164.75
2023-05-10T07:50:08.482Z,100161.22
2023-05-10T07:52:38.778Z,100164.91
2023-05-10T07:55:18.194Z,100170.66
2023-05-10T07:57:51.491Z,100171.28
2023-05-10T08:00:23.393Z,100172.56
2023-05-10T08:02:54.216Z,100164.41
2023-05-10T08:05:24.865Z,100179.88
2023-05-10T08:07:57.750Z,100172.94
2023-05-10T08:10:29.043Z,100173.34
2023-05-10T08:13:04.689Z,100178.00
2023-05-10T08:15:37.834Z,100177.50
2023-05-10T08:18:08.320Z,100181.31
2023-05-10T08:20:41.255Z,100173.19
2023-05-10T08:23:11.665Z,100178.66
2023-05-10T08:25:44.584Z,100178.28
2023-05-10T08:28:17.460Z,100180.72
2023-05-10T08:30:47.691Z,100182.78
2023-05-10T08:33:18.099Z,100176.31
2023-05-10T08:35:48.908Z,100171.59
2023-05-10T08:38:19.581Z,100179.81
2023-05-10T08:40:52.033Z,100179.63
2023-05-10T08:43:34.156Z,100180.97
2023-05-10T08:46:05.353Z,100180.34
2023-05-10T08:48:38.322Z,100179.69
2023-05-10T08:51:12.810Z,100182.25
2023-05-10T08:53:44.784Z,100179.03
2023-05-10T08:56:19.963Z,100142.97
2023-05-10T08:58:55.020Z,100177.72
2023-05-10T09:01:26.495Z,100186.06
2023-05-10T09:03:57.740Z,100177.09
2023-05-10T09:06:28.306Z,100176.25
2023-05-10T09:09:00.485Z,100176.31
2023-05-10T09:11:31.312Z,100179.47
2023-05-10T09:14:05.077Z,100176.63
2023-05-10T09:16:37.040Z,100174.97
2023-05-10T09:19:08.425Z,100175.13
2023-05-10T09:21:42.263Z,100163.38
2023-05-10T09:24:16.030Z,100164.88
2023-05-10T09:26:54.427Z,100152.41
2023-05-10T09:29:27.688Z,100159.59
2023-05-10T09:31:58.554Z,100155.63
2023-05-10T09:34:37.300Z,100149.34
2023-05-10T09:37:07.945Z,100153.72
2023-05-10T09:39:39.769Z,100151.13
2023-05-10T09:42:11.771Z,100157.94
2023-05-10T09:44:45.142Z,100157.47
2023-05-10T09:47:21.906Z,100156.38
2023-05-10T09:49:54.622Z,100148.13
2023-05-10T09:52:29.574Z,100140.78
2023-05-10T09:55:02.710Z,100146.56
2023-05-10T09:57:35.165Z,100146.19
2023-05-10T10:00:11.276Z,100141.97
2023-05-10T10:02:42.749Z,100134.63
2023-05-10T10:05:15.651Z,100139.53
2023-05-10T10:07:50.468Z,100132.03
2023-05-10T10:10:21.106Z,100133.56
2023-05-10T10:12:52.626Z,100130.88
2023-05-10T10:15:26.515Z,100122.63
2023-05-10T10:17:58.507Z,100114.38
2023-05-10T10:20:32.497Z,100109.84
2023-05-10T10:23:04.306Z,100115.94
2023-05-10T10:25:34.966Z,100109.06
2023-05-10T10:28:22.318Z,100108.34
2023-05-10T10:31:01.767Z,100105.97
2023-05-10T10:33:48.065Z,100114.28
2023-05-10T10:36:19.726Z,100107.31
2023-05-10T10:39:08.279Z,100104.91
2023-05-10T10:41:42.120Z,100096.81
2023-05-10T10:44:38.110Z,100100.66
2023-05-10T10:47:32.038Z,100090.72
2023-05-10T10:50:14.672Z,100083.84
2023-05-10T10:52:45.785Z,100091.22
2023-05-10T10:55:19.298Z,100085.88
2023-05-10T10:57:50.443Z,100087.00
2023-05-10T11:00:32.649Z,100079.81
2023-05-10T11:03:09.307Z,100079.56
2023-05-10T11:05:44.520Z,100086.91
2023-05-10T11:08:20.887Z,100082.66
2023-05-10T11:11:08.654Z,100081.19
2023-05-10T11:13:43.071Z,100079.25
2023-05-10T11:16:21.845Z,100086.56
2023-05-10T11:19:04.013Z,100075.53
2023-05-10T11:21:36.360Z,100080.56
2023-05-10T11:24:18.020Z,100082.25
2023-05-10T11:26:48.711Z,100082.84
2023-05-10T11:29:20.382Z,100085.28
2023-05-10T11:31:51.736Z,100083.59
2023-05-10T11:34:37.372Z,100068.13
2023-05-10T11:37:07.726Z,100079.63
2023-05-10T11:39:43.210Z,100082.56
2023-05-10T11:42:15.932Z,100067.72
2023-05-10T11:44:49.561Z,100060.91
2023-05-10T11:47:20.435Z,100071.41
2023-05-10T11:49:55.679Z,100070.19
2023-05-10T11:52:25.936Z,100065.81
2023-05-10T11:54:57.803Z,100059.88
2023-05-10T11:57:32.597Z,100069.63
2023-05-10T12:00:07.512Z,100071.19
2023-05-10T12:02:40.181Z,100063.91
2023-05-10T12:05:13.970Z,100074.53
2023-05-10T12:07:44.949Z,100065.94
2023-05-10T12:10:19.508Z,100067.03
2023-05-10T12:12:51.956Z,100058.44
2023-05-10T12:15:23.759Z,100054.75
2023-05-10T12:17:55.287Z,100046.31
2023-05-10T12:20:31.413Z,100041.22
2023-05-10T12:23:04.456Z,100032.94
2023-05-10T12:25:36.773Z,100039.94
2023-05-10T12:28:09.875Z,100037.63
2023-05-10T12:30:41.370Z,100039.25
2023-05-10T12:33:13.059Z,100036.13
2023-05-10T12:35:57.572Z,100036.50
2023-05-10T12:38:33.178Z,100041.66
2023-05-10T12:41:04.878Z,100030.28
2023-05-10T12:43:35.772Z,100030.56
2023-05-10T12:46:11.375Z,100034.25
2023-05-10T12:48:43.782Z,100036.13
2023-05-10T12:51:23.166Z,100027.22
2023-05-10T12:53:53.451Z,100017.81
2023-05-10T12:56:23.763Z,100016.69
2023-05-10T12:58:54.382Z,100025.34
2023-05-10T13:01:27.257Z,100020.22
2023-05-10T13:03:57.497Z,100016.69
2023-05-10T13:06:30.625Z,100022.31
2023-05-10T13:09:03.849Z,100008.22
2023-05-10T13:11:34.122Z,100005.31
2023-05-10T13:14:07.154Z,100000.34
2023-05-10T13:16:38.824Z,100005.16
2023-05-10T13:19:09.379Z,100003.34
2023-05-10T13:21:45.515Z,100000.88
2023-05-10T13:24:16.309Z,100001.06
2023-05-10T13:26:47.016Z,100005.06
2023-05-10T13:29:19.239Z,100000.03
2023-05-10T13:31:50.390Z,99995.88
2023-05-10T13:34:21.726Z,99994.66
2023-05-10T13:36:55.060Z,99994.41
2023-05-10T13:39:28.006Z,99993.00
2023-05-10T13:41:58.839Z,99995.56
2023-05-10T13:44:29.051Z,99977.59
2023-05-10T13:47:00.403Z,99979.53
2023-05-10T13:49:31.189Z,99984.78
2023-05-10T13:52:07.938Z,99978.81
2023-05-10T13:54:38.308Z,99975.94
2023-05-10T13:57:08.928Z,99973.34
2023-05-10T13:59:39.305Z,99971.00
2023-05-10T14:02:10.981Z,99959.63
2023-05-10T14:04:43.942Z,99970.75
2023-05-10T14:07:16.831Z,99967.41
2023-05-10T14:09:47.201Z,99956.94
2023-05-10T14:12:19.614Z,99956.09
2023-05-10T14:14:52.634Z,99955.53
2023-05-10T14:17:23.500Z,99950.59
2023-05-10T14:19:56.115Z,99953.78
2023-05-10T14:22:29.536Z,99946.13
2023-05-10T14:25:03.416Z,99953.78
2023-05-10T14:27:33.558Z,99946.41
2023-05-10T14:30:06.136Z,99950.16
2023-05-10T14:32:40.532Z,99952.81
2023-05-10T14:35:14.971Z,99947.84
2023-05-10T14:37:50.903Z,99952.34
2023-05-10T14:40:22.803Z,99947.63
2023-05-10T14:42:57.864Z,99939.19
2023-05-10T14:45:29.209Z,99940.13
2023-05-10T14:47:59.711Z,99927.75
2023-05-10T14:50:36.878Z,99934.34
2023-05-10T14:53:10.114Z,99940.66
2023-05-10T14:55:42.699Z,99931.00
2023-05-10T14:58:15.225Z,99931.84
2023-05-10T15:00:45.581Z,99934.16
2023-05-10T15:03:19.412Z,99927.75
2023-05-10T15:05:50.650Z,99934.38
2023-05-10T15:08:35.049Z,99927.38
2023-05-10T15:11:05.288Z,99928.78
2023-05-10T15:13:35.515Z,99929.63
2023-05-10T15:16:08.602Z,99925.94
2023-05-10T15:18:38.858Z,99925.69
2023-05-10T15:21:09.357Z,99928.56
2023-05-10T15:23:42.492Z,99925.78
2023-05-10T15:26:15.512Z,99935.09
2023-05-10T15:28:46.837Z,99918.34
2023-05-10T15:31:17.626Z,99914.41
2023-05-10T15:33:50.342Z,99920.44
2023-05-10T15:36:21.107Z,99920.72
2023-05-10T15:38:57.503Z,99919.72
2023-05-10T15:41:31.325Z,99925.19
2023-05-10T15:44:05.155Z,99915.47
2023-05-10T15:46:35.229Z,99916.50
2023-05-10T15:49:07.799Z,99915.06
2023-05-10T15:51:38.044Z,99909.00
2023-05-10T15:54:14.234Z,99909.38
2023-05-10T15:56:44.901Z,99908.81
2023-05-10T15:59:17.367Z,99913.03
2023-05-10T16:01:50.078Z,99907.00
2023-05-10T16:04:20.374Z,99904.16
2023-05-10T16:06:50.636Z,99908.22
2023-05-10T16:09:23.492Z,99903.41
2023-05-10T16:11:55.963Z,99900.63
2023-05-10T16:14:26.377Z,99904.06
2023-05-10T16:17:05.070Z,99894.63
2023-05-10T16:19:35.551Z,99897.69
2023-05-10T16:22:09.369Z,99900.28
2023-05-10T16:24:44.933Z,99897.81
2023-05-10T16:27:18.896Z,99895.72
2023-05-10T16:29:50.709Z,99910.47
2023-05-10T16:32:20.922Z,99901.81
2023-05-10T16:34:51.340Z,99907.00
2023-05-10T16:37:21.647Z,99910.53
2023-05-10T16:39:54.550Z,99909.94
2023-05-10T16:42:26.889Z,99908.31
2023-05-10T16:45:07.594Z,99905.59
2023-05-10T16:47:38.539Z,99902.97
2023-05-10T16:50:17.585Z,99914.50
2023-05-10T16:53:01.938Z,99914.69
2023-05-10T16:55:35.210Z,99915.78
2023-05-10T16:58:06.511Z,99916.25
2023-05-10T17:00:38.172Z,99916.25
2023-05-10T17:03:08.520Z,99921.31
2023-05-10T17:05:38.915Z,99934.00
2023-05-10T17:08:12.825Z,99931.06
2023-05-10T17:10:45.674Z,99929.63
2023-05-10T17:13:17.322Z,99933.47
2023-05-10T17:15:50.025Z,99925.81
2023-05-10T17:18:20.447Z,99922.78
2023-05-10T17:20:58.110Z,99930.50
2023-05-10T17:23:29.427Z,99927.78
2023-05-10T17:26:07.154Z,99930.03
2023-05-10T17:28:37.469Z,99934.16
2023-05-10T17:31:20.233Z,99936.03
2023-05-10T17:34:00.167Z,99924.41
2023-05-10T17:36:33.662Z,99929.31
2023-05-10T17:39:06.433Z,99929.91
2023-05-10T17:41:42.614Z,99926.66
2023-05-10T17:44:14.121Z,99931.84
2023-05-10T17:46:46.812Z,99932.38
2023-05-10T17:49:17.336Z,99932.56
2023-05-10T17:51:48.410Z,99936.59
2023-05-10T17:54:18.730Z,99943.31
2023-05-10T17:56:54.568Z,99943.63
2023-05-10T17:59:27.762Z,99939.31
2023-05-10T18:02:00.034Z,99944.63
2023-05-10T18:04:30.660Z,99941.81
2023-05-10T18:07:01.858Z,99941.81
2023-05-10T18:09:34.313Z,99944.97
2023-05-10T18:12:18.756Z,99947.97
2023-05-10T18:14:54.389Z,99944.47
2023-05-10T18:17:25.185Z,99952.78
2023-05-10T18:19:55.853Z,99951.09
2023-05-10T18:22:29.688Z,99957.09
2023-05-10T18:25:00.202Z,99961.19
2023-05-10T18:27:35.214Z,99959.66
2023-05-10T18:30:06.490Z,99951.72
2023-05-10T18:32:43.029Z,99959.19
2023-05-10T18:35:14.559Z,99963.25
2023-05-10T18:37:45.510Z,99970.03
2023-05-10T18:40:16.710Z,99957.97
2023-05-10T18:42:50.420Z,99971.22
2023-05-10T18:45:24.106Z,99977.09
2023-05-10T18:47:54.896Z,99974.66
2023-05-10T18:50:25.553Z,99978.53
2023-05-10T18:52:57.128Z,99979.47
2023-05-10T18:55:28.690Z,99979.53
2023-05-10T18:58:02.027Z,99987.03
2023-05-10T19:00:32.705Z,99989.63
2023-05-10T19:03:03.606Z,99986.19
2023-05-10T19:05:34.298Z,99989.44
2023-05-10T19:08:07.958Z,99986.72
2023-05-10T19:10:38.813Z,99993.47
2023-05-10T19:13:13.047Z,99991.69
2023-05-10T19:15:48.238Z,99993.00
2023-05-10T19:18:22.634Z,99990.09
2023-05-10T19:20:53.531Z,99993.31
2023-05-10T19:23:30.356Z,99992.91
2023-05-10T19:26:01.380Z,99996.28
2023-05-10T19:28:37.299Z,99991.97
2023-05-10T19:31:09.031Z,99999.81
2023-05-10T19:33:42.695Z,99997.84
2023-05-10T19:36:21.195Z,99995.44
2023-05-10T19:38:57.394Z,99993.63
2023-05-10T19:41:28.875Z,99997.13
2023-05-10T19:44:05.089Z,99996.44
2023-05-10T19:46:39.199Z,99995.31
2023-05-10T19:49:13.978Z,99997.97
2023-05-10T19:51:49.495Z,99988.91
2023-05-10T19:54:20.292Z,99999.66
2023-05-10T19:56:50.978Z,100002.19
2023-05-10T19:59:24.204Z,100005.59
2023-05-10T20:01:54.916Z,100007.00
2023-05-10T20:04:25.660Z,100006.59
2023-05-10T20:06:56.422Z,100006.44
2023-05-10T20:09:28.306Z,100007.03
2023-05-10T20:11:59.711Z,100007.31
2023-05-10T20:14:32.691Z,100006.06
2023-05-10T20:17:03.499Z,100000.63
2023-05-10T20:19:33.857Z,100009.44
2023-05-10T20:22:05.550Z,100012.34
2023-05-10T20:24:36.379Z,100008.91
2023-05-10T20:27:08.208Z,100008.75
2023-05-10T20:29:41.265Z,100014.59
2023-05-10T20:32:11.935Z,99985.03
2023-05-10T20:34:42.551Z,100013.22
2023-05-10T20:37:13.522Z,100017.13
2023-05-10T20:39:44.174Z,100007.91
2023-05-10T20:42:14.701Z,100011.38
2023-05-10T20:44:48.012Z,100008.41
2023-05-10T20:47:19.284Z,100006.03
2023-05-10T20:49:52.224Z,100006.84
2023-05-10T20:52:24.532Z,100008.41
2023-05-10T20:54:55.253Z,100006.28
2023-05-10T20:57:25.508Z,100005.84
2023-05-10T21:00:01.449Z,100007.09
2023-05-10T21:02:32.089Z,100002.75
2023-05-10T21:05:02.908Z,100004.97
2023-05-10T21:07:33.780Z,100000.94
2023-05-10T21:10:04.095Z,100001.47
2023-05-10T21:12:34.925Z,99994.06
2023-05-10T21:15:08.503Z,99996.00
2023-05-10T21:17:38.796Z,99991.94
2023-05-10T21:20:10.774Z,99996.28
2023-05-10T21:22:40.988Z,99989.59
2023-05-10T21:25:14.950Z,99991.66
2023-05-10T21:27:48.098Z,100003.59
2023-05-10T21:30:23.590Z,99999.69
2023-05-10T21:32:59.950Z,100007.16
2023-05-10T21:35:30.348Z,100009.53
2023-05-10T21:38:00.587Z,100004.63
2023-05-10T21:40:33.694Z,99999.47
2023-05-10T21:43:03.966Z,100003.47
2023-05-10T21:45:36.931Z,100008.88
2023-05-10T21:48:07.724Z,100000.22
2023-05-10T21:50:39.097Z,100000.63
2023-05-10T21:53:09.331Z,100006.63
2023-05-10T21:55:39.779Z,100004.34
2023-05-10T21:58:10.280Z,99999.06
2023-05-10T22:00:43.456Z,100000.06
2023-05-10T22:03:13.858Z,99998.41
2023-05-10T22:05:44.215Z,100004.78
2023-05-10T22:08:14.417Z,100008.84
2023-05-10T22:10:45.043Z,100012.44
2023-05-10T22:13:15.531Z,100011.47
2023-05-10T22:15:48.513Z,100008.41
2023-05-10T22:18:21.338Z,100014.28
2023-05-10T22:20:51.629Z,100005.38
2023-05-10T22:23:25.166Z,100004.88
2023-05-10T22:25:55.435Z,100004.22
2023-05-10T22:28:25.881Z,100002.56
2023-05-10T22:30:58.849Z,100002.00
2023-05-10T22:33:31.192Z,99999.22
2023-05-10T22:36:01.732Z,100001.03
2023-05-10T22:38:31.985Z,100006.91
2023-05-10T22:41:05.358Z,100009.41
2023-05-10T22:43:35.651Z,100004.84
2023-05-10T22:46:08.869Z,100009.16
2023-05-10T22:48:39.174Z,100001.81
2023-05-10T22:51:09.470Z,100000.84
2023-05-10T22:53:39.733Z,100008.19
2023-05-10T22:56:11.632Z,100007.22
2023-05-10T22:58:41.877Z,100005.28
2023-05-10T23:01:14.779Z,100006.50
2023-05-10T23:03:46.551Z,100003.88
2023-05-10T23:06:18.811Z,100003.16
2023-05-10T23:08:49.549Z,99993.56
2023-05-10T23:11:19.790Z,99998.13
2023-05-10T23:13:51.172Z,99999.09
2023-05-10T23:16:24.407Z,100001.75
2023-05-10T23:18:55.031Z,99994.78
2023-05-10T23:21:25.694Z,99996.72
2023-05-10T23:23:57.020Z,100001.16
2023-05-10T23:26:27.215Z,100000.31
2023-05-10T23:28:57.777Z,99994.50
2023-05-10T23:31:30.682Z,99988.63
2023-05-10T23:34:00.945Z,99986.44
2023-05-10T23:36:33.767Z,99999.19
2023-05-10T23:39:06.847Z,99995.84
2023-05-10T23:41:37.152Z,99988.63
2023-05-10T23:44:07.757Z,99990.31
2023-05-10T23:46:40.707Z,99995.03
2023-05-10T23:49:10.887Z,99990.19
2023-05-10T23:51:41.331Z,99985.88
2023-05-10T23:54:11.585Z,99985.88
2023-05-10T23:56:41.850Z,99985.31
2023-05-10T23:59:12.169Z,99992.25
